Terminal Aerodrome Forecast
Issued by NWS

Home | Current Version | Previous Version | Text Only | Print | Product List | Glossary On
Versions: 1 2 3 4 5 6 7 8 9 10 11 12 13 14 15 16 17 18 19
000
FTUS41 KBGM 231720
TAFRME
TAF
KRME 231720Z 2318/2418 28007KT P6SM SCT250
     FM240600 12007KT P6SM BKN120
     FM240900 13007KT P6SM BKN050 OVC100
     FM241200 14007KT 4SM -SNPL OVC025
     FM241600 17008KT 5SM -RA BR OVC010=

USA.gov is the U.S. government's official web portal to all federal, state and local government web resources and services.